Terminal Aerodrome Forecast
Issued by NWS

Home | Current Version | Previous Version | Text Only | Print | Product List | Glossary On
Versions: 1 2 3 4 5 6 7 8 9 10 11 12 13 14 15 16 17 18 19 20 21 22 23 24 25 26 27
000
FTUS42 KMFL 260520
TAFTMB
TAF
KTMB 260520Z 2606/2706 VRB03KT P6SM FEW025 FEW250
     FM261400 11010KT P6SM VCSH SCT030 SCT050 SCT250
     FM262000 11013KT P6SM SCT030 SCT250
     FM270200 11006KT P6SM FEW030 FEW250=

USA.gov is the U.S. government's official web portal to all federal, state and local government web resources and services.